Time;durP1;ratioP1;P1;durP2;ratioP2;P2;SDS_P1;SDS_P2;PMS_P1;PMS_P2;Temp;Humidity;BMP_temperature;BMP_pressure;BME280_temperature;BME280_humidity;BME280_pressure;Samples;Min_cycle;Max_cycle;Signal;HPM_P1;HPM_P2
2023/08/31 00:01:41;;;;;;;4.60;4.20;;;;;;;;;;5063037;28;20445;-82
2023/08/31 00:04:14;;;;;;;5.13;4.70;;;;;;;;;;5064205;28;20912;-81
2023/08/31 00:06:41;;;;;;;6.83;4.93;;;;;;;;;;5062768;28;20465;-82
2023/08/31 00:09:09;;;;;;;7.30;6.67;;;;;;;;;;5062794;28;20495;-81
2023/08/31 00:11:37;;;;;;;7.43;5.70;;;;;;;;;;5062766;28;20449;-82
2023/08/31 00:14:05;;;;;;;8.73;4.47;;;;;;;;;;5062334;28;20546;-81
2023/08/31 00:16:33;;;;;;;5.40;4.90;;;;;;;;;;5061725;28;20471;-82
2023/08/31 00:19:00;;;;;;;4.10;3.70;;;;;;;;;;5062583;28;20556;-81
2023/08/31 00:21:27;;;;;;;4.53;4.13;;;;;;;;;;5061735;28;20451;-82
2023/08/31 00:23:54;;;;;;;4.70;4.30;;;;;;;;;;5060294;28;20473;-82
2023/08/31 00:26:21;;;;;;;4.63;4.23;;;;;;;;;;5062544;28;20507;-81
2023/08/31 00:28:50;;;;;;;4.33;4.00;;;;;;;;;;5063331;28;20445;-82
2023/08/31 00:31:18;;;;;;;5.57;4.50;;;;;;;;;;5061677;28;20457;-81
2023/08/31 00:33:45;;;;;;;4.37;3.97;;;;;;;;;;5061106;28;20538;-81
2023/08/31 00:36:13;;;;;;;6.20;4.10;;;;;;;;;;5062615;28;20491;-82
2023/08/31 00:38:40;;;;;;;4.97;4.40;;;;;;;;;;5062674;28;20436;-81
2023/08/31 00:41:07;;;;;;;4.20;3.70;;;;;;;;;;5063524;28;20459;-81
2023/08/31 00:43:35;;;;;;;3.80;3.50;;;;;;;;;;5062491;28;20524;-82
2023/08/31 00:46:04;;;;;;;4.50;4.10;;;;;;;;;;5062217;28;20444;-81
2023/08/31 00:48:31;;;;;;;3.93;3.63;;;;;;;;;;5062196;28;20457;-81
2023/08/31 00:51:00;;;;;;;4.60;4.20;;;;;;;;;;5062191;28;20579;-82
2023/08/31 00:53:28;;;;;;;5.00;3.27;;;;;;;;;;5062204;28;21020;-82
2023/08/31 00:55:55;;;;;;;7.97;4.10;;;;;;;;;;5062422;28;20445;-82
2023/08/31 00:58:22;;;;;;;5.53;3.50;;;;;;;;;;5060590;28;20453;-82
2023/08/31 01:00:55;;;;;;;4.30;3.90;;;;;;;;;;5061698;28;20459;-82
2023/08/31 01:03:29;;;;;;;5.23;4.13;;;;;;;;;;5063483;28;20544;-81
2023/08/31 01:06:00;;;;;;;4.43;4.13;;;;;;;;;;5063166;28;20441;-82
2023/08/31 01:08:33;;;;;;;5.07;3.93;;;;;;;;;;5063166;28;20452;-82
2023/08/31 01:11:05;;;;;;;4.30;3.90;;;;;;;;;;5062102;28;20477;-82
2023/08/31 01:13:33;;;;;;;5.60;3.83;;;;;;;;;;5058954;28;20477;-82
2023/08/31 01:16:03;;;;;;;4.60;4.20;;;;;;;;;;5060996;28;20506;-82
2023/08/31 01:18:33;;;;;;;5.40;3.17;;;;;;;;;;5062725;28;20477;-82
2023/08/31 01:21:03;;;;;;;3.73;3.40;;;;;;;;;;5066417;28;20463;-82
2023/08/31 01:23:35;;;;;;;4.27;3.87;;;;;;;;;;5066132;28;20536;-81
2023/08/31 01:26:04;;;;;;;3.80;3.50;;;;;;;;;;5066907;28;20452;-82
2023/08/31 01:28:31;;;;;;;4.57;4.07;;;;;;;;;;5065283;28;20499;-82
2023/08/31 01:30:58;;;;;;;4.47;4.03;;;;;;;;;;5067344;28;21076;-82
2023/08/31 01:33:26;;;;;;;4.60;4.23;;;;;;;;;;5067106;28;20980;-82
2023/08/31 01:35:56;;;;;;;4.17;3.77;;;;;;;;;;5066434;28;20460;-81
2023/08/31 01:38:26;;;;;;;4.07;3.77;;;;;;;;;;5066138;28;20453;-82
2023/08/31 01:40:55;;;;;;;4.20;3.80;;;;;;;;;;5066241;28;20937;-81
2023/08/31 01:43:25;;;;;;;4.60;3.70;;;;;;;;;;5065405;28;20528;-82
2023/08/31 01:45:52;;;;;;;4.10;3.70;;;;;;;;;;5065097;28;20965;-82
2023/08/31 01:48:20;;;;;;;3.80;3.50;;;;;;;;;;5064804;28;21003;-82
2023/08/31 01:50:47;;;;;;;4.60;3.40;;;;;;;;;;5064359;28;20484;-81
2023/08/31 01:53:15;;;;;;;5.63;5.03;;;;;;;;;;5064609;28;20467;-81
2023/08/31 01:55:42;;;;;;;5.37;4.97;;;;;;;;;;5064987;28;20495;-82
2023/08/31 01:58:09;;;;;;;4.47;4.07;;;;;;;;;;5062859;28;20453;-82
2023/08/31 02:00:38;;;;;;;4.90;4.30;;;;;;;;;;5061944;28;20455;-82
2023/08/31 02:03:06;;;;;;;5.60;4.27;;;;;;;;;;5062485;28;20480;-82
2023/08/31 02:05:33;;;;;;;4.73;4.33;;;;;;;;;;5061984;28;20626;-82
2023/08/31 02:08:00;;;;;;;4.70;4.30;;;;;;;;;;5062988;28;20454;-82
2023/08/31 02:10:29;;;;;;;5.43;4.10;;;;;;;;;;5062080;28;21000;-82
2023/08/31 02:12:56;;;;;;;6.93;4.63;;;;;;;;;;5062135;28;20512;-82
2023/08/31 02:15:23;;;;;;;5.13;4.30;;;;;;;;;;5062215;28;20835;-82
2023/08/31 02:17:52;;;;;;;6.77;4.47;;;;;;;;;;5063166;28;20869;-82
2023/08/31 02:20:21;;;;;;;4.80;4.40;;;;;;;;;;5061934;28;20453;-81
2023/08/31 02:22:49;;;;;;;5.90;5.30;;;;;;;;;;5062661;28;20560;-82
2023/08/31 02:25:16;;;;;;;4.77;4.37;;;;;;;;;;5063977;28;20463;-82
2023/08/31 02:27:43;;;;;;;5.57;5.10;;;;;;;;;;5063766;28;20465;-83
2023/08/31 02:30:11;;;;;;;4.13;3.73;;;;;;;;;;5062506;28;21068;-82
2023/08/31 02:32:38;;;;;;;5.57;5.07;;;;;;;;;;5063293;28;20534;-82
2023/08/31 02:35:08;;;;;;;5.40;4.90;;;;;;;;;;5063787;28;20440;-82
2023/08/31 02:37:35;;;;;;;9.60;5.00;;;;;;;;;;5064246;28;20449;-82
2023/08/31 02:40:03;;;;;;;4.90;4.30;;;;;;;;;;5062337;28;20448;-82
2023/08/31 02:42:30;;;;;;;4.73;4.30;;;;;;;;;;5060893;28;20484;-82
2023/08/31 02:44:58;;;;;;;4.70;4.20;;;;;;;;;;5064168;28;20472;-82
2023/08/31 02:47:25;;;;;;;4.43;4.03;;;;;;;;;;5063497;28;20429;-82
2023/08/31 02:49:52;;;;;;;4.27;3.90;;;;;;;;;;5063271;28;20456;-82
2023/08/31 02:52:20;;;;;;;8.53;4.60;;;;;;;;;;5061895;28;20480;-82
2023/08/31 02:54:48;;;;;;;7.03;4.90;;;;;;;;;;5062193;28;20537;-82
2023/08/31 02:57:19;;;;;;;7.83;4.50;;;;;;;;;;5062550;28;20468;-82
2023/08/31 02:59:46;;;;;;;7.03;4.43;;;;;;;;;;5063055;28;20923;-82
2023/08/31 03:02:14;;;;;;;4.83;4.43;;;;;;;;;;5062294;28;20468;-82
2023/08/31 03:04:42;;;;;;;10.73;5.00;;;;;;;;;;5062006;28;20460;-82
2023/08/31 03:07:13;;;;;;;4.20;3.80;;;;;;;;;;5061932;28;20486;-82
2023/08/31 03:09:41;;;;;;;7.00;6.30;;;;;;;;;;5062381;28;20437;-81
2023/08/31 03:12:08;;;;;;;15.30;9.97;;;;;;;;;;5067775;28;20476;-81
2023/08/31 03:14:35;;;;;;;5.70;5.20;;;;;;;;;;5069317;28;20961;-81
2023/08/31 03:17:03;;;;;;;4.40;4.00;;;;;;;;;;5069459;28;20465;-81
2023/08/31 03:19:30;;;;;;;5.30;4.07;;;;;;;;;;5066932;28;20466;-81
2023/08/31 03:21:57;;;;;;;5.23;4.40;;;;;;;;;;5066257;28;20457;-82
2023/08/31 03:24:24;;;;;;;6.90;4.60;;;;;;;;;;5068666;28;20564;-81
2023/08/31 03:26:53;;;;;;;7.73;5.27;;;;;;;;;;5066439;28;20511;-82
2023/08/31 03:29:20;;;;;;;6.57;5.10;;;;;;;;;;5062794;28;20445;-82
2023/08/31 03:31:48;;;;;;;4.93;4.33;;;;;;;;;;5064999;28;20492;-80
2023/08/31 03:34:15;;;;;;;5.70;4.60;;;;;;;;;;5067774;28;20453;-81
2023/08/31 03:36:42;;;;;;;5.00;4.23;;;;;;;;;;5062502;28;20460;-81
2023/08/31 03:39:10;;;;;;;9.03;4.50;;;;;;;;;;5061047;28;20441;-81
2023/08/31 03:41:37;;;;;;;5.83;3.83;;;;;;;;;;5062378;28;20455;-81
2023/08/31 03:44:06;;;;;;;4.20;3.80;;;;;;;;;;5062927;28;20484;-81
2023/08/31 03:46:33;;;;;;;5.23;3.70;;;;;;;;;;5061189;28;20817;-81
2023/08/31 03:49:00;;;;;;;5.70;5.13;;;;;;;;;;5062185;28;20440;-82
2023/08/31 03:51:27;;;;;;;5.33;4.80;;;;;;;;;;5064216;28;20492;-81
2023/08/31 03:53:56;;;;;;;3.93;3.63;;;;;;;;;;5061839;28;20529;-82
2023/08/31 03:56:23;;;;;;;4.10;3.70;;;;;;;;;;5061489;28;20972;-80
2023/08/31 03:58:51;;;;;;;3.17;2.87;;;;;;;;;;5060099;28;20445;-82
2023/08/31 04:01:19;;;;;;;5.30;4.80;;;;;;;;;;5062320;28;20459;-81
2023/08/31 04:03:46;;;;;;;4.60;4.17;;;;;;;;;;5064271;28;20480;-82
2023/08/31 04:06:14;;;;;;;3.70;3.40;;;;;;;;;;5060416;28;20581;-82
2023/08/31 04:08:41;;;;;;;4.30;3.73;;;;;;;;;;5061434;28;20456;-82
2023/08/31 04:11:08;;;;;;;4.93;4.30;;;;;;;;;;5061738;28;20502;-81
2023/08/31 04:13:35;;;;;;;4.87;3.73;;;;;;;;;;5064070;28;20467;-81
2023/08/31 04:16:03;;;;;;;5.17;3.90;;;;;;;;;;5061987;28;20471;-81
2023/08/31 04:18:31;;;;;;;6.90;4.10;;;;;;;;;;5060382;28;20484;-81
2023/08/31 04:21:03;;;;;;;5.50;5.00;;;;;;;;;;5059530;28;20463;-81
2023/08/31 04:23:30;;;;;;;4.90;4.50;;;;;;;;;;5059566;28;20479;-80
2023/08/31 04:25:57;;;;;;;5.13;4.63;;;;;;;;;;5058959;28;20461;-81
2023/08/31 04:28:24;;;;;;;7.23;5.60;;;;;;;;;;5059193;28;20465;-81
2023/08/31 04:30:52;;;;;;;6.70;4.80;;;;;;;;;;5058646;28;20844;-81
2023/08/31 04:33:19;;;;;;;8.07;6.13;;;;;;;;;;5059039;28;20469;-82
2023/08/31 04:35:49;;;;;;;6.10;5.57;;;;;;;;;;5058483;28;20845;-81
2023/08/31 04:38:16;;;;;;;5.43;4.93;;;;;;;;;;5058515;28;20448;-81
2023/08/31 04:40:44;;;;;;;6.23;5.63;;;;;;;;;;5057793;28;20457;-81
2023/08/31 04:43:11;;;;;;;6.03;5.17;;;;;;;;;;5058167;28;20473;-81
2023/08/31 04:45:38;;;;;;;7.10;5.90;;;;;;;;;;5057286;28;20452;-81
2023/08/31 04:48:06;;;;;;;6.50;5.47;;;;;;;;;;5056505;28;20441;-81
2023/08/31 04:50:33;;;;;;;7.00;5.33;;;;;;;;;;5056305;28;20491;-81
2023/08/31 04:53:01;;;;;;;5.87;4.97;;;;;;;;;;5056513;28;20481;-81
2023/08/31 04:55:28;;;;;;;6.63;5.50;;;;;;;;;;5060548;28;20463;-81
2023/08/31 04:57:57;;;;;;;5.33;4.83;;;;;;;;;;5061129;28;20554;-81
2023/08/31 05:00:24;;;;;;;8.37;6.67;;;;;;;;;;5061424;28;20465;-80
2023/08/31 05:02:51;;;;;;;9.20;5.53;;;;;;;;;;5061187;28;20476;-81
2023/08/31 05:05:19;;;;;;;7.33;6.00;;;;;;;;;;5061563;28;20869;-81
2023/08/31 05:07:46;;;;;;;5.87;5.30;;;;;;;;;;5060593;28;20460;-81
2023/08/31 05:10:14;;;;;;;6.57;5.57;;;;;;;;;;5060825;28;20460;-81
2023/08/31 05:12:41;;;;;;;7.07;5.20;;;;;;;;;;5060617;28;20492;-81
2023/08/31 05:15:09;;;;;;;6.50;5.73;;;;;;;;;;5061016;28;20460;-81
2023/08/31 05:17:36;;;;;;;6.50;5.87;;;;;;;;;;5060750;28;20849;-81
2023/08/31 05:20:04;;;;;;;6.80;4.73;;;;;;;;;;5060369;28;20452;-81
2023/08/31 05:22:31;;;;;;;6.10;5.50;;;;;;;;;;5060998;28;20492;-81
2023/08/31 05:25:00;;;;;;;5.83;5.23;;;;;;;;;;5060506;28;20456;-81
2023/08/31 05:27:28;;;;;;;5.57;5.07;;;;;;;;;;5069893;28;20547;-82
2023/08/31 05:29:56;;;;;;;5.47;4.97;;;;;;;;;;5079386;28;20452;-82
2023/08/31 05:32:23;;;;;;;6.37;4.23;;;;;;;;;;5079659;28;20494;-81
2023/08/31 05:34:50;;;;;;;5.87;5.37;;;;;;;;;;5080221;28;20472;-82
2023/08/31 05:37:17;;;;;;;5.13;4.60;;;;;;;;;;5080627;28;20832;-82
2023/08/31 05:39:49;;;;;;;6.00;5.40;;;;;;;;;;5081077;28;20451;-81
2023/08/31 05:42:16;;;;;;;8.43;5.30;;;;;;;;;;5080261;28;20521;-82
2023/08/31 05:44:45;;;;;;;5.60;5.10;;;;;;;;;;5080048;28;20792;-82
2023/08/31 05:47:12;;;;;;;5.27;4.77;;;;;;;;;;5080305;28;20454;-81
2023/08/31 05:49:39;;;;;;;6.50;5.90;;;;;;;;;;5080487;28;20471;-82
2023/08/31 05:52:07;;;;;;;5.60;5.10;;;;;;;;;;5079953;28;20501;-82
2023/08/31 05:54:34;;;;;;;6.63;5.10;;;;;;;;;;5080524;28;20462;-81
2023/08/31 05:57:03;;;;;;;6.10;5.50;;;;;;;;;;5080124;28;20496;-82
2023/08/31 05:59:30;;;;;;;7.90;5.07;;;;;;;;;;5079793;28;20478;-81
2023/08/31 06:01:59;;;;;;;5.70;5.00;;;;;;;;;;5080073;28;20452;-84
2023/08/31 06:04:26;;;;;;;4.67;4.27;;;;;;;;;;5078115;28;20523;-84
2023/08/31 06:06:53;;;;;;;6.20;4.47;;;;;;;;;;5075818;28;20516;-84
2023/08/31 06:09:21;;;;;;;4.93;4.43;;;;;;;;;;5077713;28;20451;-84
2023/08/31 06:11:48;;;;;;;6.33;4.33;;;;;;;;;;5076105;28;20499;-84
2023/08/31 06:14:15;;;;;;;5.07;4.63;;;;;;;;;;5077160;28;20439;-86
2023/08/31 06:16:42;;;;;;;6.20;5.10;;;;;;;;;;5077368;28;20983;-84
2023/08/31 06:19:11;;;;;;;6.90;3.70;;;;;;;;;;5077010;28;20443;-84
2023/08/31 06:21:38;;;;;;;4.43;3.80;;;;;;;;;;5077815;28;20452;-84
2023/08/31 06:24:08;;;;;;;3.97;3.67;;;;;;;;;;5077326;28;20467;-84
2023/08/31 06:26:35;;;;;;;6.10;3.97;;;;;;;;;;5077074;28;20460;-84
2023/08/31 06:29:03;;;;;;;4.70;4.20;;;;;;;;;;5077082;28;20444;-83
2023/08/31 06:31:30;;;;;;;6.77;4.17;;;;;;;;;;5087677;22;20495;-79
2023/08/31 06:33:58;;;;;;;3.93;3.63;;;;;;;;;;5076772;28;21025;-83
2023/08/31 06:36:26;;;;;;;4.17;3.43;;;;;;;;;;5078261;28;20456;-83
2023/08/31 06:38:53;;;;;;;4.03;3.47;;;;;;;;;;5077001;28;20452;-84
2023/08/31 06:41:20;;;;;;;3.33;3.03;;;;;;;;;;5076401;28;20900;-78
2023/08/31 06:43:47;;;;;;;5.17;3.63;;;;;;;;;;5075434;28;20476;-80
2023/08/31 06:46:15;;;;;;;6.17;4.00;;;;;;;;;;5076124;28;20889;-79
2023/08/31 06:48:42;;;;;;;3.20;2.90;;;;;;;;;;5076152;28;20440;-79
2023/08/31 06:51:09;;;;;;;2.30;2.07;;;;;;;;;;5074394;28;20463;-77
2023/08/31 06:53:37;;;;;;;3.50;2.47;;;;;;;;;;5076182;28;20471;-80
2023/08/31 06:56:04;;;;;;;2.60;2.30;;;;;;;;;;5076260;28;20535;-77
2023/08/31 06:58:32;;;;;;;2.70;2.20;;;;;;;;;;5076220;28;20909;-79
2023/08/31 07:00:59;;;;;;;2.97;2.67;;;;;;;;;;5076934;28;20458;-80
2023/08/31 07:03:26;;;;;;;2.80;2.60;;;;;;;;;;5076758;28;20529;-79
2023/08/31 07:05:54;;;;;;;2.80;2.50;;;;;;;;;;5075379;28;20452;-80
2023/08/31 07:08:21;;;;;;;3.30;3.00;;;;;;;;;;5077020;28;20444;-79
2023/08/31 07:10:51;;;;;;;7.80;3.77;;;;;;;;;;5075869;28;20456;-78
2023/08/31 07:13:18;;;;;;;3.70;3.03;;;;;;;;;;5075441;28;20991;-80
2023/08/31 07:15:45;;;;;;;3.47;3.17;;;;;;;;;;5076120;28;20440;-80
2023/08/31 07:18:13;;;;;;;4.07;3.00;;;;;;;;;;5075856;28;20463;-80
2023/08/31 07:20:40;;;;;;;6.63;3.20;;;;;;;;;;5075677;28;20459;-79
2023/08/31 07:23:07;;;;;;;3.57;3.27;;;;;;;;;;5075192;28;20463;-80
2023/08/31 07:25:34;;;;;;;4.20;3.03;;;;;;;;;;5075409;28;20443;-79
2023/08/31 07:28:02;;;;;;;4.63;3.70;;;;;;;;;;5075255;28;21026;-79
2023/08/31 07:30:30;;;;;;;4.80;3.87;;;;;;;;;;5075424;28;20486;-79
2023/08/31 07:32:59;;;;;;;3.03;2.73;;;;;;;;;;5074674;28;20541;-79
2023/08/31 07:35:27;;;;;;;5.40;3.40;;;;;;;;;;5075664;28;20464;-79
2023/08/31 07:37:54;;;;;;;3.80;3.40;;;;;;;;;;5074108;28;20780;-80
2023/08/31 07:40:21;;;;;;;3.80;3.50;;;;;;;;;;5075242;28;20459;-79
2023/08/31 07:42:48;;;;;;;4.50;3.57;;;;;;;;;;5075585;28;20990;-79
2023/08/31 07:45:16;;;;;;;6.07;5.47;;;;;;;;;;5075146;28;20459;-79
2023/08/31 07:47:44;;;;;;;4.63;4.20;;;;;;;;;;5075525;28;20519;-79
2023/08/31 07:50:11;;;;;;;4.50;4.10;;;;;;;;;;5074646;28;20475;-79
2023/08/31 07:52:39;;;;;;;3.83;3.53;;;;;;;;;;5074970;28;20487;-79
2023/08/31 07:55:06;;;;;;;4.97;3.90;;;;;;;;;;5074564;28;20535;-79
2023/08/31 07:57:34;;;;;;;4.90;4.50;;;;;;;;;;5074685;28;20444;-79
2023/08/31 08:00:01;;;;;;;4.80;4.40;;;;;;;;;;5074728;28;20801;-79
2023/08/31 08:02:29;;;;;;;8.00;5.43;;;;;;;;;;5074539;28;20475;-78
2023/08/31 08:04:56;;;;;;;5.03;3.53;;;;;;;;;;5074593;28;20447;-79
2023/08/31 08:07:23;;;;;;;4.37;4.00;;;;;;;;;;5074935;28;20463;-79
2023/08/31 08:09:51;;;;;;;5.20;4.30;;;;;;;;;;5074779;28;20456;-80
2023/08/31 08:12:18;;;;;;;3.70;3.13;;;;;;;;;;5074882;28;20864;-80
2023/08/31 08:14:45;;;;;;;9.10;4.67;;;;;;;;;;5074725;28;20455;-79
2023/08/31 08:17:12;;;;;;;4.03;3.67;;;;;;;;;;5073977;28;20452;-80
2023/08/31 08:19:41;;;;;;;14.10;4.03;;;;;;;;;;5074854;28;20444;-79
2023/08/31 08:22:08;;;;;;;4.03;3.63;;;;;;;;;;5074303;28;21030;-79
2023/08/31 08:24:35;;;;;;;3.83;3.40;;;;;;;;;;5074723;28;20451;-78
2023/08/31 08:27:02;;;;;;;3.60;2.63;;;;;;;;;;5074505;28;20806;-78
2023/08/31 08:29:29;;;;;;;4.10;3.60;;;;;;;;;;5074465;28;20505;-78
2023/08/31 08:31:57;;;;;;;3.80;3.50;;;;;;;;;;5074354;28;20550;-79
2023/08/31 08:34:24;;;;;;;4.33;3.43;;;;;;;;;;5074167;28;20470;-78
2023/08/31 08:36:52;;;;;;;7.90;2.87;;;;;;;;;;5074348;28;20443;-79
2023/08/31 08:39:19;;;;;;;3.60;3.10;;;;;;;;;;5074661;28;20496;-79
2023/08/31 08:41:47;;;;;;;4.73;3.00;;;;;;;;;;5074379;28;20455;-79
2023/08/31 08:44:17;;;;;;;7.77;3.73;;;;;;;;;;5074024;28;20455;-78
2023/08/31 08:46:44;;;;;;;3.87;3.13;;;;;;;;;;5074469;28;20456;-78
2023/08/31 08:49:11;;;;;;;4.20;3.80;;;;;;;;;;5074333;28;20440;-79
2023/08/31 08:51:39;;;;;;;4.27;3.03;;;;;;;;;;5074526;28;20460;-79
2023/08/31 08:54:07;;;;;;;6.80;5.60;;;;;;;;;;5074649;28;20567;-79
2023/08/31 08:56:34;;;;;;;4.73;4.10;;;;;;;;;;5074474;28;20456;-80
2023/08/31 08:59:02;;;;;;;4.50;3.97;;;;;;;;;;5073458;28;20456;-79
2023/08/31 09:01:29;;;;;;;3.73;3.30;;;;;;;;;;5074831;28;20455;-80
2023/08/31 09:03:56;;;;;;;3.87;3.33;;;;;;;;;;5074249;28;20897;-79
2023/08/31 09:06:24;;;;;;;3.93;3.10;;;;;;;;;;5074493;28;20454;-80
2023/08/31 09:08:56;;;;;;;6.67;3.10;;;;;;;;;;5073858;28;20455;-79
2023/08/31 09:11:26;;;;;;;4.00;3.10;;;;;;;;;;5074239;28;20440;-79
2023/08/31 09:13:53;;;;;;;3.90;3.10;;;;;;;;;;5074736;28;20495;-79
2023/08/31 09:16:26;;;;;;;7.67;4.00;;;;;;;;;;5074169;28;20506;-79
2023/08/31 09:18:53;;;;;;;4.90;3.50;;;;;;;;;;5074325;28;20543;-78
2023/08/31 09:21:21;;;;;;;3.53;3.13;;;;;;;;;;5074002;28;20448;-79
2023/08/31 09:23:49;;;;;;;3.13;2.73;;;;;;;;;;5074542;28;20463;-78
2023/08/31 09:26:16;;;;;;;2.87;2.67;;;;;;;;;;5074293;28;20523;-79
2023/08/31 09:28:45;;;;;;;4.20;2.87;;;;;;;;;;5073951;28;20456;-78
2023/08/31 09:31:13;;;;;;;4.33;2.97;;;;;;;;;;5074465;28;20520;-79
2023/08/31 09:33:40;;;;;;;3.33;3.03;;;;;;;;;;5074762;28;20487;-79
2023/08/31 09:36:08;;;;;;;2.90;2.50;;;;;;;;;;5074227;28;20451;-79
2023/08/31 09:38:43;;;;;;;4.37;2.93;;;;;;;;;;5074222;28;20797;-79
2023/08/31 09:41:10;;;;;;;2.50;2.10;;;;;;;;;;5077736;28;20528;-79
2023/08/31 09:43:37;;;;;;;3.63;2.67;;;;;;;;;;5077496;28;20476;-79
2023/08/31 09:46:06;;;;;;;4.03;2.60;;;;;;;;;;5077811;28;20758;-79
2023/08/31 09:48:33;;;;;;;3.03;2.60;;;;;;;;;;5078514;28;20458;-79
2023/08/31 09:51:05;;;;;;;7.40;3.37;;;;;;;;;;5077535;28;20472;-79
2023/08/31 09:53:32;;;;;;;3.23;2.87;;;;;;;;;;5077163;28;20517;-79
2023/08/31 09:56:02;;;;;;;4.40;2.60;;;;;;;;;;5077965;28;20455;-79
2023/08/31 09:58:31;;;;;;;3.40;2.53;;;;;;;;;;5077868;28;20541;-80
2023/08/31 10:00:58;;;;;;;3.10;2.30;;;;;;;;;;5077781;28;21042;-80
2023/08/31 10:03:27;;;;;;;6.90;2.83;;;;;;;;;;5080198;28;20464;-79
2023/08/31 10:05:56;;;;;;;11.93;2.43;;;;;;;;;;5079116;28;20448;-78
2023/08/31 10:08:24;;;;;;;3.87;2.70;;;;;;;;;;5078461;28;20523;-79
2023/08/31 10:10:51;;;;;;;3.50;2.60;;;;;;;;;;5078084;28;20467;-79
2023/08/31 10:13:21;;;;;;;9.90;3.93;;;;;;;;;;5077405;28;20503;-80
2023/08/31 10:15:50;;;;;;;4.20;3.17;;;;;;;;;;5079806;28;20432;-88
2023/08/31 10:18:18;;;;;;;3.33;2.50;;;;;;;;;;5081491;28;20842;-87
2023/08/31 10:20:46;;;;;;;13.37;4.00;;;;;;;;;;5081491;28;20458;-87
2023/08/31 10:23:14;;;;;;;3.70;3.20;;;;;;;;;;5083313;28;20573;-81
2023/08/31 10:26:00;;;;;;;6.60;3.20;;;;;;;;;;5079767;28;20466;-81
2023/08/31 10:28:28;;;;;;;5.80;4.33;;;;;;;;;;5077445;28;20478;-81
2023/08/31 10:31:04;;;;;;;3.37;2.43;;;;;;;;;;5077866;28;20954;-81
2023/08/31 10:33:32;;;;;;;5.03;3.57;;;;;;;;;;5087211;28;20485;-80
2023/08/31 10:36:01;;;;;;;10.23;4.03;;;;;;;;;;5089491;28;20463;-80
2023/08/31 10:38:30;;;;;;;6.63;3.90;;;;;;;;;;5087811;28;20532;-80
2023/08/31 10:41:19;;;;;;;4.83;2.40;;;;;;;;;;5087507;28;20470;-80
2023/08/31 10:43:48;;;;;;;4.67;3.30;;;;;;;;;;5084279;28;20464;-80
2023/08/31 10:46:29;;;;;;;6.93;2.30;;;;;;;;;;5088579;28;20862;-79
2023/08/31 10:48:57;;;;;;;3.63;2.87;;;;;;;;;;5089698;28;20505;-80
2023/08/31 10:51:26;;;;;;;4.67;2.57;;;;;;;;;;5088102;28;20460;-80
2023/08/31 10:53:53;;;;;;;3.00;2.27;;;;;;;;;;5088677;28;20515;-80
2023/08/31 10:56:20;;;;;;;2.30;1.70;;;;;;;;;;5090153;28;20435;-81
2023/08/31 10:59:00;;;;;;;3.77;2.30;;;;;;;;;;5088127;28;20478;-80
2023/08/31 11:01:46;;;;;;;2.10;1.90;;;;;;;;;;5087711;28;20900;-80
2023/08/31 11:04:14;;;;;;;2.50;2.30;;;;;;;;;;5085803;28;20444;-78
2023/08/31 11:06:42;;;;;;;2.50;2.30;;;;;;;;;;5079873;28;20453;-81
2023/08/31 11:09:20;;;;;;;3.77;2.00;;;;;;;;;;5079906;28;20455;-79
2023/08/31 11:11:47;;;;;;;4.00;2.30;;;;;;;;;;5088291;22;21013;-82
2023/08/31 11:14:15;;;;;;;2.57;2.10;;;;;;;;;;5078545;28;20488;-80
2023/08/31 11:16:42;;;;;;;2.27;1.83;;;;;;;;;;5075996;28;20501;-77
2023/08/31 11:19:10;;;;;;;4.13;1.70;;;;;;;;;;5075528;28;20821;-78
2023/08/31 11:21:38;;;;;;;3.10;1.80;;;;;;;;;;5075068;28;20471;-78
2023/08/31 11:24:09;;;;;;;2.53;1.83;;;;;;;;;;5075219;28;20466;-77
2023/08/31 11:26:36;;;;;;;3.97;2.10;;;;;;;;;;5075154;28;20485;-77
2023/08/31 11:29:07;;;;;;;2.63;2.03;;;;;;;;;;5074936;28;20439;-78
2023/08/31 11:31:34;;;;;;;3.10;1.83;;;;;;;;;;5075115;28;20448;-77
2023/08/31 11:34:01;;;;;;;2.80;1.97;;;;;;;;;;5073221;28;20487;-77
2023/08/31 11:36:28;;;;;;;2.90;2.03;;;;;;;;;;5073862;28;20444;-77
2023/08/31 11:38:56;;;;;;;2.53;2.33;;;;;;;;;;5073988;28;20936;-77
2023/08/31 11:41:24;;;;;;;3.50;1.97;;;;;;;;;;5073368;28;20462;-77
2023/08/31 11:43:52;;;;;;;3.90;2.80;;;;;;;;;;5073582;28;20538;-78
2023/08/31 11:46:19;;;;;;;2.77;1.93;;;;;;;;;;5074216;28;20432;-78
2023/08/31 11:48:46;;;;;;;3.40;2.20;;;;;;;;;;5074502;28;20562;-77
2023/08/31 11:51:13;;;;;;;2.07;1.80;;;;;;;;;;5073306;28;20927;-77
2023/08/31 11:53:40;;;;;;;6.23;2.20;;;;;;;;;;5073286;28;20850;-77
2023/08/31 11:56:08;;;;;;;2.17;1.97;;;;;;;;;;5073068;28;20452;-77
2023/08/31 11:58:42;;;;;;;2.47;1.90;;;;;;;;;;5073438;28;20448;-77
2023/08/31 12:01:09;;;;;;;4.90;2.57;;;;;;;;;;5073023;28;20459;-77
2023/08/31 12:03:44;;;;;;;4.50;1.80;;;;;;;;;;5072303;28;20475;-77
2023/08/31 12:06:11;;;;;;;4.63;2.60;;;;;;;;;;5073087;28;20489;-76
2023/08/31 12:08:38;;;;;;;2.17;1.83;;;;;;;;;;5072724;28;20451;-76
2023/08/31 12:11:07;;;;;;;3.90;2.03;;;;;;;;;;5072496;28;20467;-77
2023/08/31 12:13:36;;;;;;;3.50;2.50;;;;;;;;;;5072754;28;20517;-76
2023/08/31 12:16:04;;;;;;;4.60;2.30;;;;;;;;;;5072305;28;20454;-77
2023/08/31 12:18:31;;;;;;;5.97;2.27;;;;;;;;;;5073115;28;20467;-76
2023/08/31 12:20:59;;;;;;;4.97;2.40;;;;;;;;;;5072351;28;20443;-77
2023/08/31 12:23:26;;;;;;;3.43;2.10;;;;;;;;;;5072400;28;20470;-76
2023/08/31 12:25:54;;;;;;;6.20;2.00;;;;;;;;;;5073089;28;20475;-76
2023/08/31 12:28:22;;;;;;;3.53;2.00;;;;;;;;;;5073012;28;20444;-77
2023/08/31 12:30:50;;;;;;;2.47;2.27;;;;;;;;;;5073063;28;20459;-76
2023/08/31 12:33:18;;;;;;;2.83;2.37;;;;;;;;;;5072663;28;20484;-77
2023/08/31 12:35:45;;;;;;;3.43;1.90;;;;;;;;;;5072557;28;20459;-77
2023/08/31 12:38:13;;;;;;;5.30;2.00;;;;;;;;;;5073125;28;20466;-77
2023/08/31 12:40:40;;;;;;;8.60;2.20;;;;;;;;;;5072595;28;20507;-77
2023/08/31 12:43:07;;;;;;;4.17;2.50;;;;;;;;;;5072674;28;20471;-77
2023/08/31 12:45:34;;;;;;;4.67;2.13;;;;;;;;;;5072466;28;20447;-77
2023/08/31 12:48:03;;;;;;;3.33;2.10;;;;;;;;;;5073174;28;20439;-77
2023/08/31 12:50:30;;;;;;;3.40;2.43;;;;;;;;;;5072870;28;20444;-77
2023/08/31 12:52:58;;;;;;;3.20;2.70;;;;;;;;;;5072617;28;20476;-78
2023/08/31 12:55:25;;;;;;;4.50;3.00;;;;;;;;;;5072021;28;20459;-75
2023/08/31 12:57:52;;;;;;;5.10;3.23;;;;;;;;;;5071956;28;20527;-77
2023/08/31 13:00:20;;;;;;;10.20;3.80;;;;;;;;;;5072024;28;20466;-77
2023/08/31 13:02:47;;;;;;;3.87;2.87;;;;;;;;;;5072089;28;20467;-77
2023/08/31 13:05:16;;;;;;;4.37;2.60;;;;;;;;;;5072446;28;20801;-77
2023/08/31 13:07:43;;;;;;;3.87;2.90;;;;;;;;;;5072547;28;20947;-77
2023/08/31 13:10:11;;;;;;;3.20;2.90;;;;;;;;;;5072271;28;20443;-77
2023/08/31 13:12:38;;;;;;;8.23;4.70;;;;;;;;;;5073169;28;20483;-77
2023/08/31 13:15:07;;;;;;;3.23;2.70;;;;;;;;;;5073704;28;20503;-77
2023/08/31 13:17:35;;;;;;;4.80;2.90;;;;;;;;;;5076357;28;20466;-78
2023/08/31 13:20:03;;;;;;;3.90;3.03;;;;;;;;;;5076431;28;20445;-76
2023/08/31 13:22:31;;;;;;;5.63;3.10;;;;;;;;;;5076519;28;20484;-76
2023/08/31 13:24:59;;;;;;;3.03;2.77;;;;;;;;;;5076196;28;20958;-77
2023/08/31 13:27:26;;;;;;;5.33;2.90;;;;;;;;;;5076404;28;20458;-77
2023/08/31 13:29:53;;;;;;;8.70;2.30;;;;;;;;;;5076007;28;20454;-77
2023/08/31 13:32:20;;;;;;;5.13;3.00;;;;;;;;;;5075752;28;20475;-77
2023/08/31 13:34:47;;;;;;;4.03;2.70;;;;;;;;;;5075735;28;20491;-77
2023/08/31 13:37:14;;;;;;;4.07;3.70;;;;;;;;;;5075805;28;20444;-77
2023/08/31 13:39:43;;;;;;;3.80;3.17;;;;;;;;;;5075746;28;20458;-77
2023/08/31 13:42:10;;;;;;;3.33;2.60;;;;;;;;;;5075658;28;20456;-77
2023/08/31 13:44:37;;;;;;;3.30;2.63;;;;;;;;;;5075180;28;20455;-77
2023/08/31 13:47:05;;;;;;;4.37;2.57;;;;;;;;;;5075739;28;20455;-78
2023/08/31 13:49:33;;;;;;;3.93;2.50;;;;;;;;;;5075424;28;20455;-77
2023/08/31 13:52:00;;;;;;;3.30;3.00;;;;;;;;;;5075460;28;20907;-76
2023/08/31 13:54:28;;;;;;;6.87;3.10;;;;;;;;;;5075422;28;20487;-77
2023/08/31 13:56:56;;;;;;;2.97;2.67;;;;;;;;;;5075546;28;20816;-77
2023/08/31 13:59:23;;;;;;;4.50;2.53;;;;;;;;;;5075208;28;20455;-74
2023/08/31 14:01:51;;;;;;;4.20;2.50;;;;;;;;;;5075555;28;20436;-77
2023/08/31 14:04:18;;;;;;;3.00;2.27;;;;;;;;;;5075286;28;20456;-77
2023/08/31 14:06:45;;;;;;;5.17;2.27;;;;;;;;;;5074852;28;20452;-77
2023/08/31 14:09:12;;;;;;;4.50;2.50;;;;;;;;;;5075604;28;20447;-77
2023/08/31 14:11:39;;;;;;;5.63;2.80;;;;;;;;;;5074977;28;20805;-76
2023/08/31 14:14:10;;;;;;;3.50;2.97;;;;;;;;;;5074634;28;20503;-76
2023/08/31 14:16:38;;;;;;;3.67;2.57;;;;;;;;;;5074860;28;20459;-77
2023/08/31 14:19:05;;;;;;;5.10;3.20;;;;;;;;;;5074239;28;20447;-76
2023/08/31 14:21:33;;;;;;;5.30;2.97;;;;;;;;;;5074664;28;20539;-76
2023/08/31 14:24:00;;;;;;;4.53;2.93;;;;;;;;;;5074511;28;20983;-75
2023/08/31 14:26:27;;;;;;;2.93;2.20;;;;;;;;;;5073433;28;20447;-75
2023/08/31 14:28:54;;;;;;;7.53;2.67;;;;;;;;;;5074648;28;20562;-76
2023/08/31 14:31:23;;;;;;;2.63;2.37;;;;;;;;;;5074720;28;20462;-76
2023/08/31 14:33:52;;;;;;;4.20;2.50;;;;;;;;;;5074281;28;20495;-78
2023/08/31 14:36:19;;;;;;;3.27;2.30;;;;;;;;;;5074617;28;20464;-78
2023/08/31 14:38:46;;;;;;;4.60;2.40;;;;;;;;;;5074627;28;20443;-79
2023/08/31 14:41:13;;;;;;;4.93;2.53;;;;;;;;;;5076617;28;20450;-78
2023/08/31 14:43:40;;;;;;;4.60;2.60;;;;;;;;;;5076957;28;20467;-78
2023/08/31 14:46:08;;;;;;;3.77;2.47;;;;;;;;;;5076760;28;20943;-78
2023/08/31 14:48:36;;;;;;;4.83;2.57;;;;;;;;;;5078466;28;20444;-79